sensor_id;sensor_type;location;lat;lon;timestamp;pressure;altitude;pressure_sealevel;temperature;humidity
43824;BME280;29470;53.550;9.926;2023-07-20T00:02:35;100817.63;;;17.71;83.37
43824;BME280;29470;53.550;9.926;2023-07-20T00:07:38;100814.50;;;18.45;79.70
43824;BME280;29470;53.550;9.926;2023-07-20T00:12:42;100809.78;;;18.14;80.95
43824;BME280;29470;53.550;9.926;2023-07-20T00:17:49;100809.28;;;18.69;79.15
43824;BME280;29470;53.550;9.926;2023-07-20T00:22:52;100811.56;;;18.37;80.87
43824;BME280;29470;53.550;9.926;2023-07-20T00:27:58;100820.16;;;18.58;79.35
43824;BME280;29470;53.550;9.926;2023-07-20T00:33:01;100811.66;;;18.63;79.27
43824;BME280;29470;53.550;9.926;2023-07-20T00:38:03;100816.69;;;18.34;81.25
43824;BME280;29470;53.550;9.926;2023-07-20T00:43:08;100822.34;;;18.22;82.63
43824;BME280;29470;53.550;9.926;2023-07-20T00:48:12;100815.25;;;17.99;82.79
43824;BME280;29470;53.550;9.926;2023-07-20T00:53:17;100809.25;;;18.45;82.06
43824;BME280;29470;53.550;9.926;2023-07-20T00:58:22;100814.72;;;18.29;83.60
43824;BME280;29470;53.550;9.926;2023-07-20T01:03:25;100816.03;;;18.40;83.61
43824;BME280;29470;53.550;9.926;2023-07-20T01:08:32;100821.91;;;18.11;87.41
43824;BME280;29470;53.550;9.926;2023-07-20T01:13:39;100830.63;;;17.91;90.44
43824;BME280;29470;53.550;9.926;2023-07-20T01:18:42;100830.78;;;17.73;91.88
43824;BME280;29470;53.550;9.926;2023-07-20T01:29:40;100833.19;;;17.68;92.86
43824;BME280;29470;53.550;9.926;2023-07-20T01:34:47;100834.09;;;17.90;93.36
43824;BME280;29470;53.550;9.926;2023-07-20T01:39:51;100827.97;;;17.89;94.56
43824;BME280;29470;53.550;9.926;2023-07-20T01:44:56;100825.19;;;18.06;92.73
43824;BME280;29470;53.550;9.926;2023-07-20T01:50:00;100831.06;;;17.58;96.66
43824;BME280;29470;53.550;9.926;2023-07-20T01:55:04;100830.94;;;17.55;96.59
43824;BME280;29470;53.550;9.926;2023-07-20T02:00:08;100828.63;;;17.62;94.60
43824;BME280;29470;53.550;9.926;2023-07-20T02:05:18;100850.66;;;17.27;99.49
43824;BME280;29470;53.550;9.926;2023-07-20T02:10:22;100857.56;;;17.46;100.00
43824;BME280;29470;53.550;9.926;2023-07-20T02:15:25;100855.03;;;17.69;98.36
43824;BME280;29470;53.550;9.926;2023-07-20T02:20:30;100845.69;;;17.75;97.41
43824;BME280;29470;53.550;9.926;2023-07-20T02:25:33;100849.78;;;17.47;99.45
43824;BME280;29470;53.550;9.926;2023-07-20T02:30:38;100857.22;;;17.58;99.09
43824;BME280;29470;53.550;9.926;2023-07-20T02:35:42;100850.59;;;17.66;97.99
43824;BME280;29470;53.550;9.926;2023-07-20T02:40:45;100849.41;;;17.59;97.60
43824;BME280;29470;53.550;9.926;2023-07-20T02:45:50;100853.69;;;17.78;97.84
43824;BME280;29470;53.550;9.926;2023-07-20T02:50:54;100856.81;;;17.91;97.62
43824;BME280;29470;53.550;9.926;2023-07-20T02:55:57;100850.22;;;17.37;99.43
43824;BME280;29470;53.550;9.926;2023-07-20T03:01:00;100862.13;;;17.30;100.00
43824;BME280;29470;53.550;9.926;2023-07-20T03:06:04;100866.63;;;17.54;99.60
43824;BME280;29470;53.550;9.926;2023-07-20T03:11:07;100868.28;;;17.52;98.00
43824;BME280;29470;53.550;9.926;2023-07-20T03:16:10;100871.25;;;17.60;97.54
43824;BME280;29470;53.550;9.926;2023-07-20T03:21:16;100871.88;;;17.34;98.90
43824;BME280;29470;53.550;9.926;2023-07-20T03:26:19;100875.81;;;17.65;97.61
43824;BME280;29470;53.550;9.926;2023-07-20T03:31:23;100877.44;;;17.62;97.80
43824;BME280;29470;53.550;9.926;2023-07-20T03:36:27;100871.19;;;17.38;97.07
43824;BME280;29470;53.550;9.926;2023-07-20T03:41:31;100866.50;;;17.51;95.47
43824;BME280;29470;53.550;9.926;2023-07-20T03:46:33;100846.66;;;17.99;93.19
43824;BME280;29470;53.550;9.926;2023-07-20T03:51:38;100865.06;;;17.58;98.20
43824;BME280;29470;53.550;9.926;2023-07-20T03:56:41;100872.75;;;17.55;99.52
43824;BME280;29470;53.550;9.926;2023-07-20T04:01:44;100874.81;;;17.83;97.65
43824;BME280;29470;53.550;9.926;2023-07-20T04:06:48;100863.19;;;17.98;94.46
43824;BME280;29470;53.550;9.926;2023-07-20T04:11:51;100873.03;;;17.82;95.89
43824;BME280;29470;53.550;9.926;2023-07-20T04:16:53;100872.34;;;18.07;94.95
43824;BME280;29470;53.550;9.926;2023-07-20T04:21:58;100874.94;;;18.07;95.43
43824;BME280;29470;53.550;9.926;2023-07-20T04:27:00;100874.78;;;18.03;94.37
43824;BME280;29470;53.550;9.926;2023-07-20T04:32:04;100881.69;;;18.01;94.99
43824;BME280;29470;53.550;9.926;2023-07-20T04:37:09;100873.56;;;18.61;90.64
43824;BME280;29470;53.550;9.926;2023-07-20T04:42:12;100873.09;;;18.49;90.36
43824;BME280;29470;53.550;9.926;2023-07-20T04:47:17;100876.63;;;18.49;89.86
43824;BME280;29470;53.550;9.926;2023-07-20T04:52:22;100880.97;;;18.49;92.78
43824;BME280;29470;53.550;9.926;2023-07-20T04:57:43;100865.84;;;18.89;88.52
43824;BME280;29470;53.550;9.926;2023-07-20T05:02:46;100867.13;;;18.76;88.64
43824;BME280;29470;53.550;9.926;2023-07-20T05:07:51;100872.38;;;18.76;89.84
43824;BME280;29470;53.550;9.926;2023-07-20T05:12:54;100879.19;;;18.04;91.70
43824;BME280;29470;53.550;9.926;2023-07-20T05:17:57;100868.28;;;19.31;87.23
43824;BME280;29470;53.550;9.926;2023-07-20T05:23:02;100868.16;;;19.26;87.17
43824;BME280;29470;53.550;9.926;2023-07-20T05:28:06;100859.72;;;19.11;86.52
43824;BME280;29470;53.550;9.926;2023-07-20T05:33:08;100857.97;;;19.36;83.82
43824;BME280;29470;53.550;9.926;2023-07-20T05:38:13;100867.69;;;19.14;85.57
43824;BME280;29470;53.550;9.926;2023-07-20T05:43:16;100876.72;;;18.75;87.64
43824;BME280;29470;53.550;9.926;2023-07-20T05:48:18;100855.31;;;19.60;83.08
43824;BME280;29470;53.550;9.926;2023-07-20T05:53:23;100864.53;;;19.49;84.57
43824;BME280;29470;53.550;9.926;2023-07-20T05:58:26;100864.34;;;19.44;83.34
43824;BME280;29470;53.550;9.926;2023-07-20T06:03:28;100860.16;;;19.75;82.18
43824;BME280;29470;53.550;9.926;2023-07-20T06:08:33;100863.25;;;20.15;81.19
43824;BME280;29470;53.550;9.926;2023-07-20T06:13:36;100861.81;;;19.71;81.69
43824;BME280;29470;53.550;9.926;2023-07-20T06:18:38;100860.50;;;20.39;78.28
43824;BME280;29470;53.550;9.926;2023-07-20T06:23:43;100857.78;;;20.94;72.82
43824;BME280;29470;53.550;9.926;2023-07-20T06:28:45;100858.56;;;21.24;68.66
43824;BME280;29470;53.550;9.926;2023-07-20T06:33:49;100868.34;;;21.29;70.91
43824;BME280;29470;53.550;9.926;2023-07-20T06:38:53;100873.53;;;20.36;74.45
43824;BME280;29470;53.550;9.926;2023-07-20T06:43:59;100875.97;;;19.77;78.15
43824;BME280;29470;53.550;9.926;2023-07-20T06:49:02;100860.66;;;21.03;68.07
43824;BME280;29470;53.550;9.926;2023-07-20T06:54:09;100850.94;;;22.02;62.68
43824;BME280;29470;53.550;9.926;2023-07-20T06:59:12;100855.09;;;22.30;59.91
43824;BME280;29470;53.550;9.926;2023-07-20T07:04:14;100845.59;;;23.21;55.05
43824;BME280;29470;53.550;9.926;2023-07-20T07:09:19;100844.88;;;24.35;51.97
43824;BME280;29470;53.550;9.926;2023-07-20T07:14:22;100844.03;;;24.39;51.12
43824;BME280;29470;53.550;9.926;2023-07-20T07:19:28;100841.13;;;24.20;51.68
43824;BME280;29470;53.550;9.926;2023-07-20T07:24:32;100840.94;;;25.48;47.84
43824;BME280;29470;53.550;9.926;2023-07-20T07:29:36;100832.69;;;26.24;44.26
43824;BME280;29470;53.550;9.926;2023-07-20T07:34:39;100845.25;;;25.41;45.56
43824;BME280;29470;53.550;9.926;2023-07-20T07:39:43;100849.88;;;22.70;51.44
43824;BME280;29470;53.550;9.926;2023-07-20T07:44:46;100847.03;;;26.61;44.21
43824;BME280;29470;53.550;9.926;2023-07-20T07:49:49;100854.13;;;29.06;38.32
43824;BME280;29470;53.550;9.926;2023-07-20T07:54:54;100846.56;;;32.35;33.41
43824;BME280;29470;53.550;9.926;2023-07-20T07:59:56;100852.13;;;31.13;33.67
43824;BME280;29470;53.550;9.926;2023-07-20T08:04:59;100849.16;;;32.40;31.15
43824;BME280;29470;53.550;9.926;2023-07-20T08:10:05;100869.31;;;28.86;37.54
43824;BME280;29470;53.550;9.926;2023-07-20T08:15:11;100869.72;;;26.13;41.00
43824;BME280;29470;53.550;9.926;2023-07-20T08:20:14;100866.69;;;28.67;37.24
43824;BME280;29470;53.550;9.926;2023-07-20T08:25:20;100860.41;;;28.96;34.81
43824;BME280;29470;53.550;9.926;2023-07-20T08:30:23;100845.19;;;30.98;32.67
43824;BME280;29470;53.550;9.926;2023-07-20T08:35:26;100861.25;;;29.01;35.52
43824;BME280;29470;53.550;9.926;2023-07-20T08:40:31;100867.28;;;26.42;39.97
43824;BME280;29470;53.550;9.926;2023-07-20T08:45:34;100887.91;;;23.72;46.98
43824;BME280;29470;53.550;9.926;2023-07-20T08:50:38;100902.22;;;21.81;56.00
43824;BME280;29470;53.550;9.926;2023-07-20T08:55:44;100883.03;;;22.60;53.12
43824;BME280;29470;53.550;9.926;2023-07-20T09:00:47;100877.88;;;22.27;53.10
43824;BME280;29470;53.550;9.926;2023-07-20T09:05:53;100876.69;;;22.50;50.90
43824;BME280;29470;53.550;9.926;2023-07-20T09:10:58;100872.97;;;23.76;48.61
43824;BME280;29470;53.550;9.926;2023-07-20T09:16:01;100879.13;;;23.27;48.80
43824;BME280;29470;53.550;9.926;2023-07-20T09:21:07;100876.66;;;23.86;45.93
43824;BME280;29470;53.550;9.926;2023-07-20T09:26:12;100901.41;;;23.40;46.88
43824;BME280;29470;53.550;9.926;2023-07-20T09:31:18;100934.41;;;21.08;60.00
43824;BME280;29470;53.550;9.926;2023-07-20T09:36:21;100927.31;;;20.48;65.14
43824;BME280;29470;53.550;9.926;2023-07-20T09:41:46;100932.88;;;19.78;70.29
43824;BME280;29470;53.550;9.926;2023-07-20T09:46:50;100914.88;;;20.14;69.46
43824;BME280;29470;53.550;9.926;2023-07-20T09:51:57;100918.16;;;21.23;67.93
43824;BME280;29470;53.550;9.926;2023-07-20T09:57:02;100916.19;;;21.78;62.91
43824;BME280;29470;53.550;9.926;2023-07-20T10:02:23;100909.09;;;21.76;60.06
43824;BME280;29470;53.550;9.926;2023-07-20T10:07:28;100907.66;;;21.55;60.92
43824;BME280;29470;53.550;9.926;2023-07-20T10:12:34;100889.91;;;21.80;56.37
43824;BME280;29470;53.550;9.926;2023-07-20T10:17:43;100897.47;;;21.68;58.84
43824;BME280;29470;53.550;9.926;2023-07-20T10:22:53;100895.94;;;22.13;56.85
43824;BME280;29470;53.550;9.926;2023-07-20T10:28:00;100889.72;;;22.09;56.35
43824;BME280;29470;53.550;9.926;2023-07-20T10:33:04;100881.91;;;22.89;50.87
43824;BME280;29470;53.550;9.926;2023-07-20T10:38:08;100886.44;;;23.41;49.41
43824;BME280;29470;53.550;9.926;2023-07-20T10:43:19;100887.13;;;22.11;54.52
43824;BME280;29470;53.550;9.926;2023-07-20T10:48:24;100899.00;;;22.30;56.58
43824;BME280;29470;53.550;9.926;2023-07-20T10:53:27;100902.28;;;22.98;57.18
43824;BME280;29470;53.550;9.926;2023-07-20T10:58:33;100901.16;;;23.77;52.57
43824;BME280;29470;53.550;9.926;2023-07-20T11:03:37;100913.91;;;23.07;56.53
43824;BME280;29470;53.550;9.926;2023-07-20T11:08:42;100921.50;;;22.15;57.21
43824;BME280;29470;53.550;9.926;2023-07-20T11:13:57;100933.03;;;22.20;55.32
43824;BME280;29470;53.550;9.926;2023-07-20T11:19:00;100937.53;;;21.89;59.27
43824;BME280;29470;53.550;9.926;2023-07-20T11:24:04;100932.97;;;22.19;54.66
43824;BME280;29470;53.550;9.926;2023-07-20T11:29:09;100919.72;;;22.51;52.83
43824;BME280;29470;53.550;9.926;2023-07-20T11:34:31;100917.44;;;22.30;51.28
43824;BME280;29470;53.550;9.926;2023-07-20T11:39:34;100919.34;;;22.74;50.62
43824;BME280;29470;53.550;9.926;2023-07-20T11:44:39;100913.75;;;23.43;48.79
43824;BME280;29470;53.550;9.926;2023-07-20T11:49:43;100909.13;;;23.80;48.41
43824;BME280;29470;53.550;9.926;2023-07-20T11:54:50;100904.97;;;24.48;47.04
43824;BME280;29470;53.550;9.926;2023-07-20T11:59:57;100912.25;;;24.06;46.23
43824;BME280;29470;53.550;9.926;2023-07-20T12:05:02;100906.25;;;24.15;45.83
43824;BME280;29470;53.550;9.926;2023-07-20T12:10:06;100905.66;;;24.98;45.17
43824;BME280;29470;53.550;9.926;2023-07-20T12:15:15;100899.88;;;24.61;46.25
43824;BME280;29470;53.550;9.926;2023-07-20T12:20:26;100916.66;;;24.07;45.38
43824;BME280;29470;53.550;9.926;2023-07-20T12:25:34;100924.16;;;23.82;46.43
43824;BME280;29470;53.550;9.926;2023-07-20T12:30:39;100926.03;;;23.41;45.74
43824;BME280;29470;53.550;9.926;2023-07-20T12:35:42;100915.50;;;24.45;43.51
43824;BME280;29470;53.550;9.926;2023-07-20T12:40:45;100915.31;;;24.33;44.83
43824;BME280;29470;53.550;9.926;2023-07-20T12:45:50;100909.31;;;24.43;45.87
43824;BME280;29470;53.550;9.926;2023-07-20T12:50:53;100914.78;;;24.55;46.17
43824;BME280;29470;53.550;9.926;2023-07-20T12:55:56;100902.66;;;23.61;47.45
43824;BME280;29470;53.550;9.926;2023-07-20T13:01:00;100910.59;;;23.62;47.29
43824;BME280;29470;53.550;9.926;2023-07-20T13:06:03;100902.00;;;24.28;44.45
43824;BME280;29470;53.550;9.926;2023-07-20T13:11:09;100902.63;;;24.10;42.37
43824;BME280;29470;53.550;9.926;2023-07-20T13:16:13;100895.19;;;23.89;42.54
43824;BME280;29470;53.550;9.926;2023-07-20T13:21:16;100900.41;;;23.84;43.50
43824;BME280;29470;53.550;9.926;2023-07-20T13:26:25;100906.22;;;23.20;44.24
43824;BME280;29470;53.550;9.926;2023-07-20T13:31:30;100913.28;;;23.65;42.67
43824;BME280;29470;53.550;9.926;2023-07-20T13:36:35;100914.38;;;23.29;43.38
43824;BME280;29470;53.550;9.926;2023-07-20T13:41:38;100908.38;;;23.38;43.07
43824;BME280;29470;53.550;9.926;2023-07-20T13:46:42;100905.31;;;24.13;42.19
43824;BME280;29470;53.550;9.926;2023-07-20T13:51:47;100906.03;;;24.03;43.13
43824;BME280;29470;53.550;9.926;2023-07-20T13:57:10;100913.56;;;23.32;43.86
43824;BME280;29470;53.550;9.926;2023-07-20T14:02:15;100916.78;;;23.18;43.90
43824;BME280;29470;53.550;9.926;2023-07-20T14:07:20;100924.03;;;22.86;43.36
43824;BME280;29470;53.550;9.926;2023-07-20T14:12:23;100914.19;;;22.78;44.10
43824;BME280;29470;53.550;9.926;2023-07-20T14:17:27;100917.53;;;22.33;45.57
43824;BME280;29470;53.550;9.926;2023-07-20T14:22:30;100909.66;;;22.71;44.34
43824;BME280;29470;53.550;9.926;2023-07-20T14:27:34;100906.03;;;23.10;43.69
43824;BME280;29470;53.550;9.926;2023-07-20T14:32:41;100915.28;;;23.30;43.60
43824;BME280;29470;53.550;9.926;2023-07-20T14:37:44;100915.34;;;23.34;43.43
43824;BME280;29470;53.550;9.926;2023-07-20T14:42:48;100918.97;;;22.98;44.95
43824;BME280;29470;53.550;9.926;2023-07-20T14:47:52;100914.19;;;22.40;44.98
43824;BME280;29470;53.550;9.926;2023-07-20T14:52:56;100926.75;;;22.50;45.68
43824;BME280;29470;53.550;9.926;2023-07-20T14:57:59;100920.22;;;22.36;46.00
43824;BME280;29470;53.550;9.926;2023-07-20T15:03:03;100919.59;;;22.85;45.95
43824;BME280;29470;53.550;9.926;2023-07-20T15:08:07;100915.94;;;23.65;43.27
43824;BME280;29470;53.550;9.926;2023-07-20T15:13:10;100909.84;;;24.20;43.72
43824;BME280;29470;53.550;9.926;2023-07-20T15:18:14;100912.75;;;23.37;45.05
43824;BME280;29470;53.550;9.926;2023-07-20T15:23:17;100906.91;;;23.09;44.89
43824;BME280;29470;53.550;9.926;2023-07-20T15:28:20;100903.28;;;23.47;43.78
43824;BME280;29470;53.550;9.926;2023-07-20T15:33:24;100920.13;;;23.54;43.73
43824;BME280;29470;53.550;9.926;2023-07-20T15:38:28;100908.09;;;23.24;44.64
43824;BME280;29470;53.550;9.926;2023-07-20T15:43:30;100905.75;;;22.54;44.75
43824;BME280;29470;53.550;9.926;2023-07-20T15:48:35;100903.34;;;22.64;44.84
43824;BME280;29470;53.550;9.926;2023-07-20T15:53:40;100914.19;;;22.78;45.48
43824;BME280;29470;53.550;9.926;2023-07-20T15:58:43;100914.44;;;22.51;45.44
43824;BME280;29470;53.550;9.926;2023-07-20T16:03:47;100902.97;;;22.47;45.77
43824;BME280;29470;53.550;9.926;2023-07-20T16:08:50;100911.38;;;22.71;45.55
43824;BME280;29470;53.550;9.926;2023-07-20T16:13:53;100917.75;;;22.42;45.98
43824;BME280;29470;53.550;9.926;2023-07-20T16:18:57;100903.16;;;22.20;45.30
43824;BME280;29470;53.550;9.926;2023-07-20T16:24:00;100903.44;;;22.32;46.18
43824;BME280;29470;53.550;9.926;2023-07-20T16:29:03;100907.72;;;22.64;45.38
43824;BME280;29470;53.550;9.926;2023-07-20T16:34:11;100905.44;;;22.81;44.44
43824;BME280;29470;53.550;9.926;2023-07-20T16:39:14;100895.50;;;22.68;45.09
43824;BME280;29470;53.550;9.926;2023-07-20T16:44:20;100896.09;;;22.19;45.92
43824;BME280;29470;53.550;9.926;2023-07-20T16:49:24;100899.16;;;22.36;45.85
43824;BME280;29470;53.550;9.926;2023-07-20T16:54:28;100894.25;;;22.15;45.72
43824;BME280;29470;53.550;9.926;2023-07-20T16:59:32;100890.19;;;22.28;46.07
43824;BME280;29470;53.550;9.926;2023-07-20T17:04:36;100895.53;;;22.32;46.94
43824;BME280;29470;53.550;9.926;2023-07-20T17:09:40;100898.03;;;21.89;47.27
43824;BME280;29470;53.550;9.926;2023-07-20T17:14:44;100900.44;;;21.48;47.09
43824;BME280;29470;53.550;9.926;2023-07-20T17:19:48;100888.50;;;21.95;47.17
43824;BME280;29470;53.550;9.926;2023-07-20T17:25:11;100895.91;;;21.74;47.48
43824;BME280;29470;53.550;9.926;2023-07-20T17:30:16;100892.03;;;21.61;47.41
43824;BME280;29470;53.550;9.926;2023-07-20T17:35:21;100898.13;;;21.60;47.02
43824;BME280;29470;53.550;9.926;2023-07-20T17:40:24;100884.03;;;21.58;48.03
43824;BME280;29470;53.550;9.926;2023-07-20T17:45:29;100888.28;;;21.19;48.36
43824;BME280;29470;53.550;9.926;2023-07-20T17:50:33;100886.34;;;20.82;49.36
43824;BME280;29470;53.550;9.926;2023-07-20T17:55:36;100886.56;;;21.54;48.44
43824;BME280;29470;53.550;9.926;2023-07-20T18:00:39;100881.00;;;21.43;48.97
43824;BME280;29470;53.550;9.926;2023-07-20T18:05:44;100885.06;;;21.31;50.27
43824;BME280;29470;53.550;9.926;2023-07-20T18:10:48;100883.44;;;21.03;49.85
43824;BME280;29470;53.550;9.926;2023-07-20T18:15:54;100887.28;;;20.84;50.18
43824;BME280;29470;53.550;9.926;2023-07-20T18:20:58;100891.00;;;20.63;51.34
43824;BME280;29470;53.550;9.926;2023-07-20T18:26:01;100881.34;;;20.62;51.39
43824;BME280;29470;53.550;9.926;2023-07-20T18:31:05;100889.25;;;20.64;51.92
43824;BME280;29470;53.550;9.926;2023-07-20T18:36:09;100891.72;;;20.86;52.05
43824;BME280;29470;53.550;9.926;2023-07-20T18:41:12;100892.81;;;20.93;52.05
43824;BME280;29470;53.550;9.926;2023-07-20T18:46:15;100885.94;;;20.69;53.15
43824;BME280;29470;53.550;9.926;2023-07-20T18:51:21;100886.25;;;20.79;52.93
43824;BME280;29470;53.550;9.926;2023-07-20T18:56:25;100891.19;;;20.98;52.83
43824;BME280;29470;53.550;9.926;2023-07-20T19:01:29;100897.16;;;20.93;51.17
43824;BME280;29470;53.550;9.926;2023-07-20T19:06:33;100889.06;;;20.85;50.85
43824;BME280;29470;53.550;9.926;2023-07-20T19:11:36;100888.50;;;20.39;51.93
43824;BME280;29470;53.550;9.926;2023-07-20T19:16:41;100891.84;;;20.62;51.68
43824;BME280;29470;53.550;9.926;2023-07-20T19:21:46;100891.94;;;20.65;51.79
43824;BME280;29470;53.550;9.926;2023-07-20T19:26:49;100893.38;;;20.55;52.14
43824;BME280;29470;53.550;9.926;2023-07-20T19:31:52;100897.13;;;20.64;52.63
43824;BME280;29470;53.550;9.926;2023-07-20T19:36:56;100899.19;;;20.74;52.65
43824;BME280;29470;53.550;9.926;2023-07-20T19:41:59;100907.28;;;20.79;53.11
43824;BME280;29470;53.550;9.926;2023-07-20T19:47:02;100910.94;;;20.84;52.98
43824;BME280;29470;53.550;9.926;2023-07-20T19:52:07;100913.00;;;20.67;53.90
43824;BME280;29470;53.550;9.926;2023-07-20T19:57:10;100909.97;;;20.54;54.06
43824;BME280;29470;53.550;9.926;2023-07-20T20:02:15;100911.66;;;20.52;54.66
43824;BME280;29470;53.550;9.926;2023-07-20T20:07:20;100903.66;;;20.48;55.10
43824;BME280;29470;53.550;9.926;2023-07-20T20:12:22;100912.88;;;20.07;56.29
43824;BME280;29470;53.550;9.926;2023-07-20T20:17:26;100909.59;;;20.13;56.18
43824;BME280;29470;53.550;9.926;2023-07-20T20:22:30;100914.56;;;20.05;56.51
43824;BME280;29470;53.550;9.926;2023-07-20T20:27:33;100902.53;;;20.12;56.61
43824;BME280;29470;53.550;9.926;2023-07-20T20:32:36;100910.22;;;19.81;57.65
43824;BME280;29470;53.550;9.926;2023-07-20T20:37:44;100915.38;;;19.78;58.22
43824;BME280;29470;53.550;9.926;2023-07-20T20:42:50;100911.28;;;19.86;58.26
43824;BME280;29470;53.550;9.926;2023-07-20T20:47:53;100918.88;;;20.03;57.20
43824;BME280;29470;53.550;9.926;2023-07-20T20:53:04;100907.09;;;19.90;58.12
43824;BME280;29470;53.550;9.926;2023-07-20T20:58:06;100904.84;;;19.77;58.94
43824;BME280;29470;53.550;9.926;2023-07-20T21:03:10;100908.63;;;19.59;59.69
43824;BME280;29470;53.550;9.926;2023-07-20T21:08:14;100916.38;;;19.56;59.51
43824;BME280;29470;53.550;9.926;2023-07-20T21:13:17;100911.56;;;19.44;60.19
43824;BME280;29470;53.550;9.926;2023-07-20T21:18:20;100909.06;;;19.23;61.11
43824;BME280;29470;53.550;9.926;2023-07-20T21:23:24;100913.75;;;18.84;63.34
43824;BME280;29470;53.550;9.926;2023-07-20T21:28:27;100914.53;;;18.82;63.38
43824;BME280;29470;53.550;9.926;2023-07-20T21:33:30;100911.97;;;18.83;63.50
43824;BME280;29470;53.550;9.926;2023-07-20T21:38:34;100912.44;;;18.73;64.27
43824;BME280;29470;53.550;9.926;2023-07-20T21:43:39;100908.50;;;18.62;65.36
43824;BME280;29470;53.550;9.926;2023-07-20T21:48:42;100910.47;;;18.90;64.23
43824;BME280;29470;53.550;9.926;2023-07-20T21:53:46;100920.25;;;18.94;64.15
43824;BME280;29470;53.550;9.926;2023-07-20T21:58:49;100908.47;;;18.83;64.96
43824;BME280;29470;53.550;9.926;2023-07-20T22:03:52;100901.81;;;18.93;64.43
43824;BME280;29470;53.550;9.926;2023-07-20T22:08:56;100898.97;;;19.09;63.92
43824;BME280;29470;53.550;9.926;2023-07-20T22:13:59;100903.69;;;18.95;63.96
43824;BME280;29470;53.550;9.926;2023-07-20T22:19:02;100910.97;;;19.27;62.70
43824;BME280;29470;53.550;9.926;2023-07-20T22:24:06;100911.16;;;19.32;62.63
43824;BME280;29470;53.550;9.926;2023-07-20T22:29:09;100904.56;;;19.19;62.90
43824;BME280;29470;53.550;9.926;2023-07-20T22:34:12;100904.66;;;18.97;63.91
43824;BME280;29470;53.550;9.926;2023-07-20T22:39:16;100904.28;;;19.11;63.42
43824;BME280;29470;53.550;9.926;2023-07-20T22:44:19;100892.06;;;19.11;63.35
43824;BME280;29470;53.550;9.926;2023-07-20T22:49:22;100893.09;;;18.92;64.02
43824;BME280;29470;53.550;9.926;2023-07-20T22:54:26;100884.66;;;18.99;63.95
43824;BME280;29470;53.550;9.926;2023-07-20T22:59:30;100883.13;;;19.06;63.79
43824;BME280;29470;53.550;9.926;2023-07-20T23:04:33;100887.28;;;18.99;63.89
43824;BME280;29470;53.550;9.926;2023-07-20T23:09:37;100882.19;;;19.04;64.31
43824;BME280;29470;53.550;9.926;2023-07-20T23:14:41;100879.06;;;19.14;63.86
43824;BME280;29470;53.550;9.926;2023-07-20T23:19:44;100881.19;;;19.01;64.22
43824;BME280;29470;53.550;9.926;2023-07-20T23:24:48;100876.78;;;19.24;63.37
43824;BME280;29470;53.550;9.926;2023-07-20T23:29:52;100871.69;;;19.53;61.80
43824;BME280;29470;53.550;9.926;2023-07-20T23:34:54;100869.56;;;19.42;62.54
43824;BME280;29470;53.550;9.926;2023-07-20T23:39:59;100856.28;;;19.64;61.81
43824;BME280;29470;53.550;9.926;2023-07-20T23:45:02;100856.84;;;19.29;64.30
43824;BME280;29470;53.550;9.926;2023-07-20T23:50:06;100853.41;;;19.30;65.40
43824;BME280;29470;53.550;9.926;2023-07-20T23:55:12;100840.25;;;19.28;67.02
